This is the latest recevied weather packets stored in our database for station/object YO8RBY-13. If no packets are shown the sender has not sent any weather packets the latest 10 day(s).
| Time | Temp. | Humidity | Pressure | Rain* | Wind** | Luminosity | Snow |
|---|---|---|---|---|---|---|---|
| 1777451628 | 11.67° C | 31% | 979.3 hPa | - | - | - | - |
| 1777450433 | 11.11° C | 33% | 979.3 hPa | - | - | - | - |
| 1777449228 | 10° C | 35% | 979.4 hPa | - | - | - | - |
| 1777442628 | 7.78° C | 48% | 979.4 hPa | - | - | - | - |
| 1777440829 | 7.22° C | 51% | 979.2 hPa | - | - | - | - |
| 1777440229 | 6.67° C | 51% | 979.3 hPa | - | - | - | - |
| 1777439643 | 6.67° C | 56% | 979.2 hPa | - | - | - | - |
| 1777430628 | 3.33° C | 10% | - | - | - | - | - |
| 1777427628 | 3.89° C | 10% | - | - | - | - | - |
| 1777421628 | 6.67° C | 75% | 979 hPa | - | - | - | - |
| 1777418627 | 6.67° C | 81% | 979.1 hPa | - | - | - | - |
| 1777413228 | 7.22° C | 79% | 979.1 hPa | - | - | - | - |
| 1777412028 | 7.22° C | 90% | 979.1 hPa | - | - | - | - |
| 1777409627 | 8.33° C | 92% | 978.7 hPa | - | - | - | - |
| 1777406627 | 8.89° C | 79% | 978.5 hPa | - | - | - | - |
| 1777398242 | 10° C | 72% | 977.4 hPa | - | - | - | - |
| 1777397643 | 10° C | 73% | 977.2 hPa | - | - | - | - |
| 1777396427 | 11.11° C | 58% | 977 hPa | - | - | - | - |
| 1777395228 | 11.11° C | 53% | 976.6 hPa | - | - | - | - |
| 1777394027 | 11.67° C | 49% | 976.6 hPa | - | - | - | - |
| 1777392227 | 12.78° C | 42% | 976.3 hPa | - | - | - | - |
| 1777391044 | 13.33° C | 43% | 976.2 hPa | - | - | - | - |
| 1777379628 | 15° C | 38% | 976.2 hPa | - | - | - | - |
| 1777373627 | 14.44° C | 35% | 976.5 hPa | - | - | - | - |
| 1777371227 | 13.89° C | 34% | 976.5 hPa | - | - | - | - |
* Rain since midnight (hover to see other rain measurements)
** Current wind speed in m/s (hover to see current wind gust speed)